createdAt,value
2022-11-07T00:01:21.426Z,3.42
2022-11-07T00:04:23.472Z,4.13
2022-11-07T00:07:25.197Z,3.53
2022-11-07T00:10:26.836Z,3.33
2022-11-07T00:13:29.137Z,3.85
2022-11-07T00:16:32.306Z,2.92
2022-11-07T00:19:33.827Z,3.25
2022-11-07T00:22:35.440Z,4.97
2022-11-07T00:25:37.009Z,2.95
2022-11-07T00:28:40.797Z,5.85
2022-11-07T00:31:42.395Z,4.63
2022-11-07T00:34:43.980Z,4.60
2022-11-07T00:37:45.542Z,2.58
2022-11-07T00:41:02.347Z,2.88
2022-11-07T00:44:04.376Z,3.42
2022-11-07T00:47:05.977Z,2.50
2022-11-07T00:50:08.091Z,3.63
2022-11-07T00:53:09.803Z,3.53
2022-11-07T00:56:13.704Z,2.30
2022-11-07T00:59:15.277Z,3.38
2022-11-07T01:02:16.932Z,3.55
2022-11-07T01:05:18.567Z,2.97
2022-11-07T01:08:20.159Z,3.50
2022-11-07T01:11:22.112Z,2.85
2022-11-07T01:14:24.896Z,2.65
2022-11-07T01:17:26.500Z,3.15
2022-11-07T01:20:28.053Z,1.90
2022-11-07T01:23:29.613Z,3.88
2022-11-07T01:26:31.202Z,2.17
2022-11-07T01:29:32.906Z,2.03
2022-11-07T01:32:34.561Z,1.95
2022-11-07T01:35:36.641Z,2.53
2022-11-07T01:38:41.377Z,2.38
2022-11-07T01:41:43.024Z,1.75
2022-11-07T01:44:50.459Z,2.20
2022-11-07T01:47:53.449Z,3.88
2022-11-07T01:50:55.111Z,4.72
2022-11-07T01:53:57.059Z,3.92
2022-11-07T01:57:03.614Z,3.67
2022-11-07T02:00:09.079Z,3.30
2022-11-07T02:03:13.562Z,3.67
2022-11-07T02:06:22.832Z,3.58
2022-11-07T02:09:24.391Z,3.45
2022-11-07T02:12:27.206Z,3.88
2022-11-07T02:15:29.911Z,2.03
2022-11-07T02:18:35.534Z,4.15
2022-11-07T02:21:53.389Z,4.20
2022-11-07T02:25:00.490Z,3.85
2022-11-07T02:28:08.037Z,5.25
2022-11-07T02:31:09.669Z,3.15
2022-11-07T02:34:11.225Z,3.33
2022-11-07T02:37:26.476Z,3.38
2022-11-07T02:40:30.645Z,2.33
2022-11-07T02:43:34.838Z,3.88
2022-11-07T02:46:36.764Z,3.83
2022-11-07T02:49:38.297Z,4.10
2022-11-07T02:52:39.885Z,5.63
2022-11-07T02:55:41.552Z,5.20
2022-11-07T02:58:43.202Z,3.25
2022-11-07T03:01:44.843Z,3.40
2022-11-07T03:04:49.145Z,4.03
2022-11-07T03:07:51.102Z,3.85
2022-11-07T03:10:52.767Z,4.57
2022-11-07T03:13:55.461Z,3.83
2022-11-07T03:16:57.075Z,3.90
2022-11-07T03:19:59.573Z,5.60
2022-11-07T03:23:01.416Z,6.88
2022-11-07T03:26:04.142Z,3.83
2022-11-07T03:29:06.182Z,4.35
2022-11-07T03:32:09.192Z,4.85
2022-11-07T03:35:11.125Z,3.80
2022-11-07T03:38:12.718Z,4.88
2022-11-07T03:41:17.393Z,4.50
2022-11-07T03:44:19.044Z,4.03
2022-11-07T03:47:20.626Z,3.55
2022-11-07T03:50:22.560Z,3.58
2022-11-07T03:53:26.081Z,3.03
2022-11-07T03:56:28.161Z,3.08
2022-11-07T03:59:29.760Z,5.15
2022-11-07T04:02:31.521Z,4.35
2022-11-07T04:05:33.238Z,4.60
2022-11-07T04:08:35.335Z,3.58
2022-11-07T04:11:55.473Z,3.38
2022-11-07T04:15:15.657Z,7.78
2022-11-07T04:18:17.247Z,3.28
2022-11-07T04:21:18.908Z,4.57
2022-11-07T04:24:20.465Z,4.80
2022-11-07T04:27:40.889Z,6.05
2022-11-07T04:30:42.423Z,4.30
2022-11-07T04:33:43.993Z,7.22
2022-11-07T04:36:45.571Z,6.65
2022-11-07T04:39:47.215Z,5.53
2022-11-07T04:42:49.864Z,7.13
2022-11-07T04:45:51.653Z,7.22
2022-11-07T04:48:53.276Z,6.18
2022-11-07T04:51:57.724Z,5.32
2022-11-07T04:54:59.470Z,6.22
2022-11-07T04:58:01.110Z,5.93
2022-11-07T05:01:03.230Z,9.30
2022-11-07T05:04:04.998Z,4.38
2022-11-07T05:07:08.104Z,6.68
2022-11-07T05:10:18.599Z,7.65
2022-11-07T05:13:20.190Z,7.22
2022-11-07T05:16:21.814Z,7.20
2022-11-07T05:19:23.689Z,6.50
2022-11-07T05:22:43.754Z,4.80
2022-11-07T05:25:50.766Z,5.57
2022-11-07T05:28:52.400Z,8.50
2022-11-07T05:31:53.998Z,11.93
2022-11-07T05:34:55.591Z,5.32
2022-11-07T05:37:57.194Z,5.07
2022-11-07T05:41:03.004Z,7.07
2022-11-07T05:44:04.818Z,6.10
2022-11-07T05:47:06.394Z,7.88
2022-11-07T05:50:08.374Z,6.78
2022-11-07T05:53:10.082Z,6.10
2022-11-07T05:56:11.795Z,5.93
2022-11-07T05:59:13.957Z,4.90
2022-11-07T06:02:15.934Z,7.60
2022-11-07T06:05:23.908Z,6.28
2022-11-07T06:08:25.837Z,6.60
2022-11-07T06:11:27.413Z,4.93
2022-11-07T06:14:29.381Z,5.78
2022-11-07T06:17:31.024Z,7.78
2022-11-07T06:20:33.996Z,8.90
2022-11-07T06:23:35.653Z,4.70
2022-11-07T06:26:37.379Z,9.52
2022-11-07T06:29:38.931Z,5.97
2022-11-07T06:32:44.146Z,6.95
2022-11-07T06:35:46.386Z,4.95
2022-11-07T06:38:52.598Z,5.70
2022-11-07T06:41:54.230Z,6.78
2022-11-07T06:44:56.144Z,7.43
2022-11-07T06:47:57.708Z,5.68
2022-11-07T06:51:01.204Z,4.57
2022-11-07T06:54:02.980Z,5.28
2022-11-07T06:57:04.711Z,5.10
2022-11-07T07:00:07.093Z,5.82
2022-11-07T07:03:11.173Z,6.13
2022-11-07T07:06:15.725Z,4.30
2022-11-07T07:09:17.459Z,7.80
2022-11-07T07:12:19.029Z,7.18
2022-11-07T07:15:20.880Z,7.45
2022-11-07T07:18:23.269Z,6.03
2022-11-07T07:21:26.175Z,6.10
2022-11-07T07:24:27.868Z,7.75
2022-11-07T07:27:29.545Z,5.55
2022-11-07T07:30:31.230Z,10.20
2022-11-07T07:33:32.775Z,9.52
2022-11-07T07:36:34.358Z,7.60
2022-11-07T07:39:35.921Z,8.93
2022-11-07T07:42:42.726Z,9.98
2022-11-07T07:45:44.303Z,5.88
2022-11-07T07:48:45.847Z,4.57
2022-11-07T07:51:47.583Z,5.43
2022-11-07T07:54:49.211Z,9.80
2022-11-07T07:57:51.003Z,5.43
2022-11-07T08:00:53.486Z,7.28
2022-11-07T08:04:01.928Z,4.72
2022-11-07T08:07:04.241Z,4.05
2022-11-07T08:10:34.976Z,6.90
2022-11-07T08:13:28.505Z,3.85
2022-11-07T08:16:30.210Z,6.47
2022-11-07T08:19:31.783Z,4.35
2022-11-07T08:22:33.346Z,6.15
2022-11-07T08:25:35.097Z,7.85
2022-11-07T08:28:36.796Z,4.32
2022-11-07T08:31:38.498Z,3.70
2022-11-07T08:34:40.063Z,4.55
2022-11-07T08:37:44.770Z,5.72
2022-11-07T08:40:46.518Z,6.88
2022-11-07T08:43:49.267Z,6.45
2022-11-07T08:46:50.855Z,4.00
2022-11-07T08:49:52.418Z,5.95
2022-11-07T08:53:01.173Z,5.15
2022-11-07T08:56:08.261Z,4.65
2022-11-07T08:59:10.751Z,5.30
2022-11-07T09:03:08.364Z,5.15
2022-11-07T09:05:35.344Z,4.45
2022-11-07T09:08:36.891Z,6.55
2022-11-07T09:11:38.648Z,5.13
2022-11-07T09:14:40.250Z,3.50
2022-11-07T09:17:42.099Z,7.93
2022-11-07T09:20:43.670Z,6.60
2022-11-07T09:23:45.218Z,2.53
2022-11-07T09:26:46.788Z,4.68
2022-11-07T09:29:48.331Z,5.22
2022-11-07T09:32:49.869Z,4.88
2022-11-07T09:35:51.903Z,7.35
2022-11-07T09:38:56.081Z,4.68
2022-11-07T09:42:15.268Z,5.72
2022-11-07T09:45:16.892Z,6.65
2022-11-07T09:48:23.784Z,5.10
2022-11-07T09:51:38.152Z,5.43
2022-11-07T09:54:46.824Z,7.75
2022-11-07T09:57:50.312Z,5.68
2022-11-07T10:07:46.102Z,4.70
2022-11-07T10:11:00.620Z,3.53
2022-11-07T10:14:09.421Z,6.80
2022-11-07T10:17:28.961Z,4.30
2022-11-07T10:21:10.153Z,5.47
2022-11-07T10:24:34.556Z,6.22
2022-11-07T10:27:38.164Z,6.20
2022-11-07T10:30:41.180Z,5.35
2022-11-07T10:34:00.185Z,6.05
2022-11-07T10:37:02.059Z,5.50
2022-11-07T10:40:16.290Z,7.10
2022-11-07T10:43:35.471Z,5.57
2022-11-07T10:46:42.328Z,4.60
2022-11-07T10:49:56.559Z,6.20
2022-11-07T10:53:05.571Z,5.60
2022-11-07T10:56:12.550Z,8.27
2022-11-07T10:59:24.864Z,9.82
2022-11-07T11:02:50.926Z,7.47
2022-11-07T11:05:52.470Z,3.95
2022-11-07T11:08:54.736Z,5.30
2022-11-07T11:11:56.346Z,7.20
2022-11-07T11:15:14.544Z,7.25
2022-11-07T11:18:18.581Z,5.53
2022-11-07T11:21:20.840Z,6.55
2022-11-07T11:24:30.428Z,6.82
2022-11-07T11:27:34.301Z,3.40
2022-11-07T11:30:37.010Z,4.80
2022-11-07T11:33:44.679Z,6.75
2022-11-07T11:36:56.804Z,9.15
2022-11-07T11:39:58.326Z,5.10
2022-11-07T11:43:10.787Z,7.53
2022-11-07T11:46:35.338Z,19.30
2022-11-07T11:50:09.883Z,5.97
2022-11-07T11:53:17.199Z,3.63
2022-11-07T11:56:43.858Z,7.97
2022-11-07T11:59:55.143Z,6.60
2022-11-07T12:03:15.180Z,4.50
2022-11-07T12:06:40.016Z,7.03
2022-11-07T12:09:48.312Z,3.90
2022-11-07T12:13:14.924Z,4.03
2022-11-07T12:16:22.906Z,7.72
2022-11-07T12:19:35.102Z,6.50
2022-11-07T12:23:00.800Z,3.65
2022-11-07T12:26:11.871Z,4.32
2022-11-07T12:29:22.725Z,6.00
2022-11-07T12:32:44.135Z,4.68
2022-11-07T12:35:45.903Z,6.03
2022-11-07T12:39:04.066Z,7.05
2022-11-07T12:42:21.693Z,6.15
2022-11-07T12:45:38.119Z,1.98
2022-11-07T12:48:51.705Z,6.68
2022-11-07T12:52:03.901Z,2.67
2022-11-07T12:55:16.996Z,7.03
2022-11-07T12:58:25.103Z,6.97
2022-11-07T13:01:41.393Z,5.80
2022-11-07T13:04:57.125Z,5.30
2022-11-07T13:08:17.965Z,3.40
2022-11-07T13:11:20.657Z,10.27
2022-11-07T13:14:31.497Z,5.57
2022-11-07T13:17:45.152Z,7.70
2022-11-07T13:20:47.588Z,5.93
2022-11-07T13:23:49.659Z,4.95
2022-11-07T13:26:51.957Z,5.60
2022-11-07T13:29:54.311Z,3.20
2022-11-07T13:32:57.426Z,4.20
2022-11-07T13:36:25.276Z,3.47
2022-11-07T13:39:29.376Z,5.85
2022-11-07T13:42:33.922Z,6.22
2022-11-07T13:45:59.100Z,5.38
2022-11-07T13:49:15.088Z,4.50
2022-11-07T13:52:26.404Z,4.63
2022-11-07T13:55:44.091Z,4.93
2022-11-07T13:58:46.296Z,5.32
2022-11-07T14:01:56.307Z,2.85
2022-11-07T14:05:16.323Z,8.05
2022-11-07T14:08:43.968Z,4.65
2022-11-07T14:14:50.585Z,4.05
2022-11-07T14:17:55.175Z,4.07
2022-11-07T14:20:58.749Z,4.68
2022-11-07T14:24:01.718Z,5.43
2022-11-07T14:30:20.075Z,4.38
2022-11-07T14:33:22.992Z,5.43
2022-11-07T14:36:25.266Z,6.38
2022-11-07T14:39:30.140Z,5.13
2022-11-07T14:42:31.743Z,6.30
2022-11-07T14:46:06.063Z,2.67
2022-11-07T14:48:56.101Z,3.10
2022-11-07T14:51:57.702Z,3.92
2022-11-07T14:55:14.466Z,5.20
2022-11-07T14:58:18.424Z,2.65
2022-11-07T15:01:35.986Z,4.28
2022-11-07T15:04:41.832Z,3.97
2022-11-07T15:07:48.696Z,7.43
2022-11-07T15:11:07.359Z,7.97
2022-11-07T15:14:24.659Z,6.00
2022-11-07T15:17:26.595Z,4.95
2022-11-07T15:20:30.937Z,2.90
2022-11-07T15:23:34.958Z,7.00
2022-11-07T15:26:36.720Z,4.25
2022-11-07T15:29:38.353Z,6.03
2022-11-07T15:32:42.978Z,6.68
2022-11-07T15:35:46.816Z,5.60
2022-11-07T15:38:49.666Z,6.28
2022-11-07T15:41:51.231Z,7.97
2022-11-07T15:44:52.854Z,7.88
2022-11-07T15:47:54.510Z,6.47
2022-11-07T15:50:57.431Z,5.65
2022-11-07T15:53:59.125Z,8.15
2022-11-07T15:57:03.959Z,5.57
2022-11-07T16:00:06.110Z,6.47
2022-11-07T16:03:15.725Z,8.60
2022-11-07T16:06:21.207Z,2.33
2022-11-07T16:09:22.980Z,8.95
2022-11-07T16:12:24.821Z,7.60
2022-11-07T16:15:27.469Z,5.43
2022-11-07T16:18:34.950Z,6.97
2022-11-07T16:21:36.567Z,9.75
2022-11-07T16:24:38.258Z,5.85
2022-11-07T16:27:41.477Z,8.63
2022-11-07T16:33:44.787Z,22.15
2022-11-07T16:36:47.389Z,10.88
2022-11-07T16:39:48.990Z,13.63
2022-11-07T16:42:50.543Z,8.25
2022-11-07T16:45:57.942Z,5.47
2022-11-07T16:49:13.958Z,5.47
2022-11-07T16:52:17.137Z,4.93
2022-11-07T16:55:25.149Z,7.03
2022-11-07T16:58:32.494Z,9.27
2022-11-07T17:01:35.917Z,8.52
2022-11-07T17:04:37.901Z,6.85
2022-11-07T17:07:39.945Z,8.38
2022-11-07T17:10:42.018Z,10.05
2022-11-07T17:13:45.104Z,12.27
2022-11-07T17:16:48.614Z,11.68
2022-11-07T17:19:50.547Z,8.43
2022-11-07T17:22:52.323Z,7.60
2022-11-07T17:25:54.416Z,6.60
2022-11-07T17:28:57.570Z,9.20
2022-11-07T17:31:59.447Z,5.63
2022-11-07T17:35:30.063Z,6.32
2022-11-07T17:38:28.616Z,4.65
2022-11-07T17:41:30.583Z,8.18
2022-11-07T17:44:35.201Z,5.88
2022-11-07T17:47:37.113Z,6.90
2022-11-07T17:50:39.841Z,7.40
2022-11-07T17:53:43.576Z,8.20
2022-11-07T17:56:45.362Z,7.50
2022-11-07T17:59:47.252Z,5.53
2022-11-07T18:02:50.797Z,6.95
2022-11-07T18:05:53.790Z,6.80
2022-11-07T18:08:59.324Z,5.38
2022-11-07T18:12:02.590Z,3.78
2022-11-07T18:15:12.962Z,5.18
2022-11-07T18:18:16.517Z,5.88
2022-11-07T18:21:20.785Z,7.03
2022-11-07T18:24:23.314Z,6.18
2022-11-07T18:27:25.608Z,3.72
2022-11-07T18:30:27.774Z,8.45
2022-11-07T18:33:29.695Z,8.23
2022-11-07T18:36:34.977Z,8.32
2022-11-07T18:39:36.609Z,5.55
2022-11-07T18:42:42.023Z,11.00
2022-11-07T18:45:43.873Z,10.68
2022-11-07T18:48:46.578Z,7.45
2022-11-07T18:51:48.850Z,11.25
2022-11-07T18:54:50.680Z,6.63
2022-11-07T18:57:52.420Z,6.95
2022-11-07T19:00:55.211Z,5.68
2022-11-07T19:03:59.737Z,7.22
2022-11-07T19:07:01.909Z,7.28
2022-11-07T19:10:04.129Z,6.38
2022-11-07T19:13:08.337Z,9.38
2022-11-07T19:16:12.199Z,6.55
2022-11-07T19:19:14.324Z,8.35
2022-11-07T19:22:17.134Z,5.75
2022-11-07T19:25:18.991Z,10.52
2022-11-07T19:28:20.951Z,7.15
2022-11-07T19:31:22.764Z,8.50
2022-11-07T19:34:25.605Z,12.98
2022-11-07T19:37:27.301Z,5.38
2022-11-07T19:40:29.643Z,6.85
2022-11-07T19:43:32.109Z,7.27
2022-11-07T19:46:33.677Z,6.80
2022-11-07T19:49:35.246Z,7.13
2022-11-07T19:52:37.193Z,7.43
2022-11-07T19:55:39.006Z,6.68
2022-11-07T19:58:41.675Z,10.65
2022-11-07T20:01:43.381Z,10.60
2022-11-07T20:04:46.696Z,6.40
2022-11-07T20:10:55.939Z,6.20
2022-11-07T20:14:02.949Z,4.53
2022-11-07T20:17:05.618Z,6.15
2022-11-07T20:20:13.266Z,8.48
2022-11-07T20:23:15.863Z,9.05
2022-11-07T20:26:20.981Z,5.37
2022-11-07T20:29:23.015Z,9.38
2022-11-07T20:32:24.935Z,6.70
2022-11-07T20:35:26.508Z,5.35
2022-11-07T20:38:30.250Z,6.13
2022-11-07T20:41:32.891Z,10.45
2022-11-07T20:44:34.908Z,8.55
2022-11-07T20:47:36.988Z,9.52
2022-11-07T20:50:38.922Z,17.35
2022-11-07T20:53:46.767Z,16.52
2022-11-07T20:56:55.654Z,10.40
2022-11-07T20:59:58.018Z,9.20
2022-11-07T21:02:59.969Z,12.95
2022-11-07T21:06:01.846Z,11.98
2022-11-07T21:09:04.981Z,8.15
2022-11-07T21:12:06.941Z,10.00
2022-11-07T21:15:09.934Z,9.43
2022-11-07T21:18:12.872Z,11.00
2022-11-07T21:21:20.310Z,8.60
2022-11-07T21:24:22.331Z,8.65
2022-11-07T21:27:23.954Z,15.07
2022-11-07T21:30:26.031Z,9.65
2022-11-07T21:33:28.078Z,9.48
2022-11-07T21:36:31.346Z,6.90
2022-11-07T21:39:33.087Z,8.80
2022-11-07T21:42:34.698Z,10.93
2022-11-07T21:45:36.278Z,8.13
2022-11-07T21:48:38.372Z,10.95
2022-11-07T21:51:40.122Z,9.52
2022-11-07T21:54:41.726Z,11.25
2022-11-07T21:57:46.048Z,7.93
2022-11-07T22:00:48.248Z,7.90
2022-11-07T22:04:09.845Z,8.25
2022-11-07T22:07:12.928Z,11.80
2022-11-07T22:10:15.387Z,8.20
2022-11-07T22:13:18.690Z,9.37
2022-11-07T22:16:22.292Z,11.02
2022-11-07T22:19:25.636Z,8.88
2022-11-07T22:22:27.555Z,12.43
2022-11-07T22:25:29.532Z,10.20
2022-11-07T22:28:31.928Z,11.70
2022-11-07T22:31:33.753Z,12.30
2022-11-07T22:37:39.188Z,10.10
2022-11-07T22:40:44.757Z,12.45
2022-11-07T22:43:46.797Z,9.85
2022-11-07T22:46:48.390Z,12.77
2022-11-07T22:49:50.025Z,15.63
2022-11-07T22:52:51.612Z,12.80
2022-11-07T22:55:53.394Z,19.20
2022-11-07T22:58:56.149Z,12.57
2022-11-07T23:01:57.956Z,11.55
2022-11-07T23:05:02.753Z,13.10
2022-11-07T23:08:08.128Z,10.50
2022-11-07T23:11:44.718Z,14.13
2022-11-07T23:14:36.655Z,16.20
2022-11-07T23:17:38.904Z,11.70
2022-11-07T23:20:58.909Z,13.63
2022-11-07T23:24:00.981Z,11.55
2022-11-07T23:27:05.886Z,13.95
2022-11-07T23:30:08.057Z,11.48
2022-11-07T23:33:09.784Z,13.05
2022-11-07T23:36:14.398Z,10.65
2022-11-07T23:39:18.594Z,10.27
2022-11-07T23:42:20.216Z,9.88
2022-11-07T23:45:40.820Z,11.35
2022-11-07T23:49:01.740Z,9.77
2022-11-07T23:52:04.351Z,10.23
2022-11-07T23:55:25.186Z,10.30
2022-11-07T23:58:45.153Z,10.52
